createdAt,value
2018-05-12T00:00:47.159Z,14.70
2018-05-12T00:03:13.415Z,15.10
2018-05-12T00:05:40.365Z,15.10
2018-05-12T00:08:07.384Z,14.20
2018-05-12T00:10:33.626Z,16.83
2018-05-12T00:12:59.877Z,14.77
2018-05-12T00:15:26.115Z,15.53
2018-05-12T00:17:52.447Z,14.50
2018-05-12T00:20:18.660Z,13.97
2018-05-12T00:22:44.899Z,13.03
2018-05-12T00:25:11.114Z,13.40
2018-05-12T00:27:38.091Z,14.33
2018-05-12T00:30:04.362Z,15.27
2018-05-12T00:32:30.611Z,14.70
2018-05-12T00:34:56.838Z,15.20
2018-05-12T00:37:23.087Z,15.77
2018-05-12T00:39:49.470Z,15.53
2018-05-12T00:42:15.715Z,15.60
2018-05-12T00:44:41.968Z,15.20
2018-05-12T00:47:08.931Z,16.03
2018-05-12T00:49:35.904Z,15.70
2018-05-12T00:52:02.148Z,16.73
2018-05-12T00:54:28.390Z,14.73
2018-05-12T00:56:54.617Z,16.40
2018-05-12T00:59:20.862Z,16.00
2018-05-12T01:01:47.078Z,16.73
2018-05-12T01:04:14.052Z,16.03
2018-05-12T01:06:40.310Z,17.30
2018-05-12T01:09:06.553Z,17.33
2018-05-12T01:11:32.774Z,16.07
2018-05-12T01:13:59.003Z,14.77
2018-05-12T01:16:25.980Z,14.90
2018-05-12T01:18:52.262Z,15.80
2018-05-12T01:21:18.488Z,15.10
2018-05-12T01:23:44.726Z,15.10
2018-05-12T01:26:10.950Z,16.27
2018-05-12T01:28:37.214Z,14.83
2018-05-12T01:31:03.480Z,13.90
2018-05-12T01:33:29.724Z,14.37
2018-05-12T01:35:55.981Z,13.97
2018-05-12T01:38:22.946Z,14.60
2018-05-12T01:40:50.037Z,15.47
2018-05-12T01:43:16.295Z,14.77
2018-05-12T01:45:42.528Z,14.23
2018-05-12T01:48:08.762Z,16.10
2018-05-12T01:50:35.001Z,16.47
2018-05-12T01:53:01.258Z,16.10
2018-05-12T01:55:27.481Z,16.00
2018-05-12T01:57:53.690Z,16.93
2018-05-12T02:00:20.681Z,16.33
2018-05-12T02:02:46.903Z,15.17
2018-05-12T02:05:13.129Z,16.27
2018-05-12T02:07:40.079Z,15.27
2018-05-12T02:10:07.089Z,16.03
2018-05-12T02:12:33.357Z,15.73
2018-05-12T02:14:59.593Z,15.93
2018-05-12T02:17:25.815Z,16.53
2018-05-12T02:19:52.057Z,16.10
2018-05-12T02:22:18.296Z,14.87
2018-05-12T02:24:44.527Z,14.63
2018-05-12T02:27:10.747Z,15.20
2018-05-12T02:29:36.999Z,15.60
2018-05-12T02:32:03.235Z,15.03
2018-05-12T02:34:29.462Z,14.13
2018-05-12T02:36:55.683Z,13.23
2018-05-12T02:39:22.649Z,14.83
2018-05-12T02:41:49.838Z,16.20
2018-05-12T02:44:16.096Z,15.03
2018-05-12T02:46:42.327Z,16.20
2018-05-12T02:49:08.681Z,14.40
2018-05-12T02:51:34.825Z,15.40
2018-05-12T02:54:01.079Z,15.07
2018-05-12T02:56:27.301Z,14.93
2018-05-12T02:58:53.530Z,13.50
2018-05-12T03:01:19.746Z,15.67
2018-05-12T03:03:45.971Z,15.40
2018-05-12T03:06:12.954Z,15.10
2018-05-12T03:08:39.183Z,14.83
2018-05-12T03:11:05.425Z,17.53
2018-05-12T03:13:31.730Z,15.07
2018-05-12T03:15:57.968Z,15.27
2018-05-12T03:18:24.175Z,15.17
2018-05-12T03:20:50.414Z,15.00
2018-05-12T03:23:16.710Z,14.73
2018-05-12T03:25:43.686Z,12.73
2018-05-12T03:28:09.913Z,13.87
2018-05-12T03:30:36.896Z,14.70
2018-05-12T03:33:03.132Z,13.63
2018-05-12T03:35:29.376Z,14.60
2018-05-12T03:37:55.590Z,13.63
2018-05-12T03:40:22.582Z,12.13
2018-05-12T03:42:48.926Z,13.70
2018-05-12T03:45:15.178Z,13.20
2018-05-12T03:47:41.386Z,13.80
2018-05-12T03:50:07.630Z,13.10
2018-05-12T03:52:33.859Z,13.17
2018-05-12T03:55:00.111Z,14.00
2018-05-12T03:57:26.335Z,13.77
2018-05-12T03:59:53.307Z,14.73
2018-05-12T04:02:20.273Z,16.00
2018-05-12T04:04:58.689Z,14.27
2018-05-12T04:07:38.761Z,14.27
2018-05-12T04:10:17.215Z,15.15
2018-05-12T04:12:43.461Z,15.17
2018-05-12T04:15:09.686Z,14.45
2018-05-12T04:17:35.961Z,14.87
2018-05-12T04:20:02.216Z,16.00
2018-05-12T04:22:29.210Z,16.17
2018-05-12T04:24:55.433Z,14.13
2018-05-12T04:27:22.427Z,12.43
2018-05-12T04:29:48.631Z,14.37
2018-05-12T04:32:14.857Z,12.60
2018-05-12T04:34:41.821Z,12.70
2018-05-12T04:37:08.823Z,13.90
2018-05-12T04:39:35.025Z,14.30
2018-05-12T04:42:02.029Z,14.53
2018-05-12T04:44:28.263Z,13.70
2018-05-12T04:46:54.491Z,12.77
2018-05-12T04:49:20.716Z,13.93
2018-05-12T04:51:46.961Z,14.80
2018-05-12T04:54:13.241Z,14.77
2018-05-12T04:56:39.448Z,13.40
2018-05-12T04:59:05.679Z,14.23
2018-05-12T05:01:31.921Z,16.00
2018-05-12T05:03:58.166Z,14.83
2018-05-12T05:06:24.396Z,13.40
2018-05-12T05:08:50.629Z,13.63
2018-05-12T05:11:17.615Z,14.03
2018-05-12T05:13:43.891Z,12.87
2018-05-12T05:16:10.140Z,13.93
2018-05-12T05:18:36.367Z,13.03
2018-05-12T05:21:02.582Z,10.87
2018-05-12T05:23:28.824Z,11.93
2018-05-12T05:25:55.031Z,11.20
2018-05-12T05:28:22.003Z,11.50
2018-05-12T05:30:48.245Z,11.33
2018-05-12T05:33:14.488Z,10.73
2018-05-12T05:35:40.712Z,9.90
2018-05-12T05:38:06.950Z,10.67
2018-05-12T05:40:33.903Z,10.90
2018-05-12T05:43:00.867Z,10.80
2018-05-12T05:45:27.850Z,11.37
2018-05-12T05:47:54.088Z,10.10
2018-05-12T05:50:20.330Z,10.37
2018-05-12T05:52:46.570Z,9.40
2018-05-12T05:55:12.790Z,9.30
2018-05-12T05:57:39.036Z,9.23
2018-05-12T06:00:05.309Z,8.90
2018-05-12T06:02:31.530Z,8.90
2018-05-12T06:04:57.746Z,8.93
2018-05-12T06:07:24.732Z,8.67
2018-05-12T06:09:50.950Z,7.60
2018-05-12T06:12:17.263Z,7.10
2018-05-12T06:14:43.490Z,6.10
2018-05-12T06:17:09.742Z,6.50
2018-05-12T06:19:35.954Z,6.30
2018-05-12T06:22:02.211Z,5.87
2018-05-12T06:24:28.461Z,6.40
2018-05-12T06:26:54.691Z,5.80
2018-05-12T06:29:20.940Z,6.30
2018-05-12T06:31:47.158Z,6.60
2018-05-12T06:34:13.383Z,6.13
2018-05-12T06:36:39.605Z,6.80
2018-05-12T06:39:05.855Z,5.67
2018-05-12T06:41:32.072Z,6.30
2018-05-12T06:43:58.333Z,6.50
2018-05-12T06:46:24.580Z,7.17
2018-05-12T06:48:50.835Z,6.90
2018-05-12T06:51:17.044Z,6.73
2018-05-12T06:53:43.271Z,6.70
2018-05-12T06:56:10.244Z,6.40
2018-05-12T06:58:36.463Z,7.00
2018-05-12T07:01:03.430Z,6.50
2018-05-12T07:03:30.415Z,5.60
2018-05-12T07:05:56.639Z,6.80
2018-05-12T07:08:22.853Z,6.67
2018-05-12T07:10:49.099Z,6.80
2018-05-12T07:13:15.523Z,6.40
2018-05-12T07:15:41.765Z,6.17
2018-05-12T07:18:07.993Z,5.63
2018-05-12T07:20:34.207Z,6.13
2018-05-12T07:23:00.429Z,5.97
2018-05-12T07:25:26.691Z,6.43
2018-05-12T07:27:52.889Z,5.80
2018-05-12T07:30:19.915Z,6.00
2018-05-12T07:32:46.156Z,6.60
2018-05-12T07:35:12.399Z,5.80
2018-05-12T07:37:38.634Z,5.93
2018-05-12T07:40:04.841Z,6.33
2018-05-12T07:42:31.059Z,6.40
2018-05-12T07:44:58.040Z,7.87
2018-05-12T07:47:24.286Z,7.57
2018-05-12T07:49:50.511Z,8.60
2018-05-12T07:52:16.756Z,8.80
2018-05-12T07:54:42.978Z,8.47
2018-05-12T07:57:09.944Z,9.40
2018-05-12T07:59:36.204Z,10.33
2018-05-12T08:02:02.411Z,9.37
2018-05-12T08:04:29.396Z,11.07
2018-05-12T08:06:55.624Z,10.23
2018-05-12T08:09:21.875Z,11.80
2018-05-12T08:11:48.110Z,10.93
2018-05-12T08:14:14.359Z,10.97
2018-05-12T08:16:40.591Z,11.37
2018-05-12T08:19:06.846Z,10.37
2018-05-12T08:21:33.060Z,10.80
2018-05-12T08:24:00.024Z,11.80
2018-05-12T08:26:26.242Z,11.87
2018-05-12T08:28:53.212Z,11.67
2018-05-12T08:31:20.170Z,11.70
2018-05-12T08:33:47.196Z,12.83
2018-05-12T08:36:13.435Z,13.20
2018-05-12T08:38:39.670Z,11.67
2018-05-12T08:41:05.912Z,11.60
2018-05-12T08:43:32.142Z,10.93
2018-05-12T08:45:58.387Z,11.00
2018-05-12T08:48:24.721Z,11.70
2018-05-12T08:50:51.637Z,11.53
2018-05-12T08:53:17.880Z,10.40
2018-05-12T08:55:44.120Z,9.70
2018-05-12T08:58:10.362Z,10.57
2018-05-12T09:00:36.601Z,10.20
2018-05-12T09:03:02.814Z,10.80
2018-05-12T09:05:29.066Z,10.57
2018-05-12T09:07:56.065Z,10.70
2018-05-12T09:10:22.323Z,10.10
2018-05-12T09:12:48.561Z,11.97
2018-05-12T09:15:14.807Z,11.17
2018-05-12T09:17:41.049Z,11.10
2018-05-12T09:20:07.295Z,10.77
2018-05-12T09:22:33.547Z,10.87
2018-05-12T09:24:59.775Z,10.97
2018-05-12T09:27:25.985Z,11.07
2018-05-12T09:29:52.240Z,11.90
2018-05-12T09:32:18.485Z,11.27
2018-05-12T09:34:44.757Z,11.43
2018-05-12T09:37:11.776Z,11.37
2018-05-12T09:39:37.961Z,11.90
2018-05-12T09:42:04.933Z,12.37
2018-05-12T09:44:31.882Z,12.03
2018-05-12T09:46:58.856Z,13.27
2018-05-12T09:49:25.113Z,11.57
2018-05-12T09:51:51.364Z,11.63
2018-05-12T09:54:17.600Z,10.70
2018-05-12T09:56:43.850Z,12.03
2018-05-12T09:59:10.092Z,10.63
2018-05-12T10:01:36.329Z,11.10
2018-05-12T10:04:02.579Z,10.97
2018-05-12T10:06:28.834Z,10.10
2018-05-12T10:08:55.054Z,11.07
2018-05-12T10:11:21.298Z,11.20
2018-05-12T10:13:47.582Z,10.97
2018-05-12T10:16:13.808Z,10.90
2018-05-12T10:18:40.043Z,9.47
2018-05-12T10:21:06.274Z,10.70
2018-05-12T10:23:32.518Z,10.13
2018-05-12T10:25:58.771Z,11.67
2018-05-12T10:28:25.006Z,10.70
2018-05-12T10:30:51.256Z,10.60
2018-05-12T10:33:17.497Z,9.70
2018-05-12T10:35:43.750Z,10.73
2018-05-12T10:38:10.721Z,10.20
2018-05-12T10:40:36.988Z,8.70
2018-05-12T10:43:03.259Z,10.50
2018-05-12T10:45:29.528Z,9.03
2018-05-12T10:47:55.734Z,7.87
2018-05-12T10:50:21.998Z,7.97
2018-05-12T10:52:48.256Z,6.40
2018-05-12T10:55:15.221Z,7.90
2018-05-12T10:57:41.474Z,5.90
2018-05-12T11:00:07.706Z,7.90
2018-05-12T11:02:34.674Z,8.57
2018-05-12T11:05:00.886Z,7.23
2018-05-12T11:07:27.868Z,7.40
2018-05-12T11:09:54.098Z,8.63
2018-05-12T11:12:21.174Z,6.70
2018-05-12T11:14:47.389Z,5.57
2018-05-12T11:17:14.385Z,5.43
2018-05-12T11:19:40.672Z,6.10
2018-05-12T11:22:06.913Z,7.93
2018-05-12T11:24:33.123Z,7.20
2018-05-12T11:26:59.366Z,7.40
2018-05-12T11:29:25.624Z,7.50
2018-05-12T11:31:51.851Z,6.63
2018-05-12T11:34:18.081Z,6.10
2018-05-12T11:36:44.318Z,6.43
2018-05-12T11:39:10.527Z,7.77
2018-05-12T11:41:36.777Z,7.60
2018-05-12T11:44:03.051Z,6.43
2018-05-12T11:46:29.283Z,5.20
2018-05-12T11:48:55.565Z,7.10
2018-05-12T11:51:21.834Z,5.93
2018-05-12T11:53:48.098Z,6.97
2018-05-12T11:56:14.337Z,7.73
2018-05-12T11:58:40.553Z,6.87
2018-05-12T12:01:06.793Z,6.03
2018-05-12T12:03:33.775Z,6.63
2018-05-12T12:05:59.987Z,6.40
2018-05-12T12:08:26.945Z,6.80
2018-05-12T12:10:53.915Z,5.10
2018-05-12T12:13:20.236Z,7.17
2018-05-12T12:15:47.213Z,6.03
2018-05-12T12:18:13.465Z,6.80
2018-05-12T12:20:39.721Z,7.80
2018-05-12T12:23:05.959Z,6.60
2018-05-12T12:25:32.210Z,7.20
2018-05-12T12:27:58.458Z,6.33
2018-05-12T12:30:24.662Z,5.90
2018-05-12T12:32:50.903Z,5.13
2018-05-12T12:35:17.132Z,6.03
2018-05-12T12:37:43.379Z,5.60
2018-05-12T12:40:09.597Z,5.13
2018-05-12T12:42:36.571Z,5.30
2018-05-12T12:45:02.953Z,5.93
2018-05-12T12:47:29.076Z,4.90
2018-05-12T12:49:55.342Z,5.20
2018-05-12T12:52:21.587Z,5.10
2018-05-12T12:54:47.832Z,4.63
2018-05-12T12:57:14.048Z,4.20
2018-05-12T12:59:40.296Z,4.40
2018-05-12T13:02:06.494Z,4.57
2018-05-12T13:04:32.734Z,4.33
2018-05-12T13:06:58.947Z,3.90
2018-05-12T13:09:25.168Z,4.17
2018-05-12T13:11:51.412Z,5.07
2018-05-12T13:14:17.664Z,3.57
2018-05-12T13:16:43.891Z,3.90
2018-05-12T13:19:10.132Z,4.53
2018-05-12T13:21:36.399Z,4.57
2018-05-12T13:24:02.646Z,3.83
2018-05-12T13:26:29.625Z,3.90
2018-05-12T13:28:55.890Z,4.40
2018-05-12T13:31:22.115Z,4.20
2018-05-12T13:33:48.378Z,4.30
2018-05-12T13:36:14.596Z,4.47
2018-05-12T13:38:40.836Z,3.90
2018-05-12T13:41:07.061Z,4.00
2018-05-12T13:43:33.303Z,3.57
2018-05-12T13:45:59.524Z,4.10
2018-05-12T13:48:25.755Z,3.17
2018-05-12T13:50:51.989Z,3.13
2018-05-12T13:53:18.346Z,3.50
2018-05-12T13:55:45.367Z,3.37
2018-05-12T13:58:11.596Z,3.40
2018-05-12T14:00:37.862Z,3.73
2018-05-12T14:03:04.089Z,2.97
2018-05-12T14:05:30.285Z,3.00
2018-05-12T14:07:56.537Z,3.40
2018-05-12T14:10:22.779Z,3.13
2018-05-12T14:12:49.064Z,3.77
2018-05-12T14:15:15.321Z,3.30
2018-05-12T14:17:41.535Z,3.67
2018-05-12T14:20:07.773Z,3.70
2018-05-12T14:22:34.780Z,3.37
2018-05-12T14:25:01.007Z,2.63
2018-05-12T14:27:27.981Z,2.90
2018-05-12T14:29:55.041Z,3.10
2018-05-12T14:32:21.217Z,3.83
2018-05-12T14:34:47.468Z,3.43
2018-05-12T14:37:13.672Z,2.63
2018-05-12T14:39:39.893Z,2.60
2018-05-12T14:42:06.867Z,3.77
2018-05-12T14:44:33.119Z,3.93
2018-05-12T14:46:59.332Z,3.13
2018-05-12T14:49:26.341Z,3.40
2018-05-12T14:51:52.571Z,3.70
2018-05-12T14:54:19.090Z,3.40
2018-05-12T14:56:45.340Z,3.67
2018-05-12T14:59:11.568Z,3.60
2018-05-12T15:01:37.787Z,3.17
2018-05-12T15:04:04.032Z,3.53
2018-05-12T15:06:31.010Z,3.40
2018-05-12T15:08:57.236Z,3.13
2018-05-12T15:11:23.488Z,3.20
2018-05-12T15:13:50.524Z,4.47
2018-05-12T15:16:16.834Z,3.80
2018-05-12T15:18:43.073Z,3.90
2018-05-12T15:21:09.313Z,3.60
2018-05-12T15:23:36.290Z,4.37
2018-05-12T15:26:02.550Z,4.37
2018-05-12T15:28:29.509Z,4.20
2018-05-12T15:30:56.500Z,3.67
2018-05-12T15:33:22.743Z,4.20
2018-05-12T15:35:48.984Z,3.90
2018-05-12T15:38:15.627Z,3.63
2018-05-12T15:40:41.863Z,3.60
2018-05-12T15:43:08.115Z,3.40
2018-05-12T15:45:34.352Z,3.50
2018-05-12T15:48:00.600Z,3.50
2018-05-12T15:50:26.872Z,3.97
2018-05-12T15:52:53.844Z,4.30
2018-05-12T15:55:20.394Z,3.17
2018-05-12T15:57:46.648Z,3.80
2018-05-12T16:00:12.920Z,3.30
2018-05-12T16:02:39.188Z,3.50
2018-05-12T16:05:05.438Z,3.80
2018-05-12T16:07:31.674Z,3.43
2018-05-12T16:09:57.895Z,4.30
2018-05-12T16:12:24.214Z,3.60
2018-05-12T16:14:50.508Z,4.23
2018-05-12T16:17:23.536Z,5.07
2018-05-12T16:19:49.763Z,4.17
2018-05-12T16:22:15.995Z,4.43
2018-05-12T16:24:42.217Z,3.97
2018-05-12T16:27:08.465Z,4.20
2018-05-12T16:29:34.691Z,4.47
2018-05-12T16:32:00.957Z,4.33
2018-05-12T16:34:27.198Z,3.60
2018-05-12T16:36:53.417Z,4.23
2018-05-12T16:39:19.665Z,4.43
2018-05-12T16:41:45.920Z,4.73
2018-05-12T16:44:12.143Z,4.97
2018-05-12T16:46:38.385Z,4.90
2018-05-12T16:49:04.596Z,4.63
2018-05-12T16:51:30.845Z,4.73
2018-05-12T16:53:57.064Z,4.77
2018-05-12T16:56:23.486Z,4.40
2018-05-12T16:58:49.703Z,6.53
2018-05-12T17:01:15.935Z,6.90
2018-05-12T17:03:42.161Z,6.60
2018-05-12T17:06:08.367Z,6.43
2018-05-12T17:08:34.580Z,8.03
2018-05-12T17:11:00.789Z,7.03
2018-05-12T17:13:27.043Z,6.83
2018-05-12T17:15:53.260Z,6.27
2018-05-12T17:18:19.492Z,7.50
2018-05-12T17:20:45.720Z,7.70
2018-05-12T17:23:11.969Z,8.27
2018-05-12T17:25:38.196Z,8.10
2018-05-12T17:28:04.431Z,7.30
2018-05-12T17:30:31.377Z,8.10
2018-05-12T17:32:57.600Z,8.37
2018-05-12T17:35:23.814Z,7.50
2018-05-12T17:37:50.138Z,8.83
2018-05-12T17:40:17.058Z,8.47
2018-05-12T17:42:44.024Z,9.50
2018-05-12T17:45:10.268Z,10.07
2018-05-12T17:47:36.527Z,8.90
2018-05-12T17:50:02.823Z,9.23
2018-05-12T17:52:29.048Z,9.23
2018-05-12T17:54:55.270Z,9.40
2018-05-12T17:57:21.762Z,8.67
2018-05-12T17:59:48.777Z,8.37
2018-05-12T18:02:15.063Z,7.40
2018-05-12T18:04:41.301Z,8.10
2018-05-12T18:07:08.276Z,9.43
2018-05-12T18:09:34.517Z,8.60
2018-05-12T18:12:00.862Z,9.57
2018-05-12T18:14:27.104Z,8.40
2018-05-12T18:16:53.333Z,9.00
2018-05-12T18:19:20.304Z,6.90
2018-05-12T18:21:46.547Z,8.97
2018-05-12T18:24:12.765Z,9.17
2018-05-12T18:26:39.045Z,9.23
2018-05-12T18:29:05.300Z,8.60
2018-05-12T18:31:31.536Z,9.70
2018-05-12T18:33:57.788Z,8.20
2018-05-12T18:36:24.061Z,8.10
2018-05-12T18:38:50.281Z,9.00
2018-05-12T18:41:16.553Z,8.60
2018-05-12T18:43:43.529Z,9.60
2018-05-12T18:46:09.787Z,8.80
2018-05-12T18:48:36.037Z,8.77
2018-05-12T18:51:02.263Z,8.50
2018-05-12T18:53:28.507Z,9.10
2018-05-12T18:55:54.761Z,8.70
2018-05-12T18:58:21.089Z,9.50
2018-05-12T19:00:47.349Z,9.63
2018-05-12T19:03:13.569Z,8.87
2018-05-12T19:05:39.852Z,8.40
2018-05-12T19:08:06.129Z,8.60
2018-05-12T19:10:33.119Z,9.27
2018-05-12T19:12:59.413Z,8.73
2018-05-12T19:15:26.438Z,9.90
2018-05-12T19:17:52.641Z,8.60
2018-05-12T19:20:18.925Z,8.40
2018-05-12T19:22:45.154Z,8.67
2018-05-12T19:25:11.403Z,8.43
2018-05-12T19:27:37.706Z,8.80
2018-05-12T19:30:03.962Z,8.87
2018-05-12T19:32:30.246Z,9.50
2018-05-12T19:34:56.502Z,9.17
2018-05-12T19:37:22.743Z,8.77
2018-05-12T19:39:49.755Z,8.27
2018-05-12T19:42:16.012Z,9.57
2018-05-12T19:44:42.263Z,9.57
2018-05-12T19:47:08.536Z,9.07
2018-05-12T19:49:34.845Z,9.60
2018-05-12T19:52:01.046Z,9.77
2018-05-12T19:54:27.276Z,7.90
2018-05-12T19:56:53.598Z,9.77
2018-05-12T19:59:20.244Z,10.10
2018-05-12T20:01:47.982Z,10.27
2018-05-12T20:04:14.190Z,10.10
2018-05-12T20:06:40.476Z,9.80
2018-05-12T20:09:06.723Z,11.07
2018-05-12T20:11:33.786Z,10.17
2018-05-12T20:14:00.021Z,9.73
2018-05-12T20:16:26.329Z,10.10
2018-05-12T20:18:59.372Z,10.00
2018-05-12T20:21:25.655Z,10.30
2018-05-12T20:23:51.924Z,9.77
2018-05-12T20:26:18.934Z,9.90
2018-05-12T20:28:45.181Z,9.83
2018-05-12T20:31:11.494Z,9.80
2018-05-12T20:33:37.763Z,9.50
2018-05-12T20:36:04.009Z,9.73
2018-05-12T20:38:30.290Z,10.03
2018-05-12T20:40:56.570Z,9.90
2018-05-12T20:43:23.571Z,10.37
2018-05-12T20:45:49.821Z,10.50
2018-05-12T20:48:16.057Z,9.77
2018-05-12T20:50:42.323Z,10.30
2018-05-12T20:53:08.545Z,11.43
2018-05-12T20:55:34.802Z,10.00
2018-05-12T20:58:01.023Z,10.27
2018-05-12T21:00:27.345Z,8.93
2018-05-12T21:02:53.638Z,10.30
2018-05-12T21:05:19.872Z,9.80
2018-05-12T21:07:46.112Z,9.57
2018-05-12T21:10:12.349Z,9.87
2018-05-12T21:12:38.603Z,10.17
2018-05-12T21:15:04.833Z,10.70
2018-05-12T21:17:31.060Z,9.60
2018-05-12T21:19:57.290Z,10.03
2018-05-12T21:22:23.550Z,10.10
2018-05-12T21:24:49.795Z,10.50
2018-05-12T21:27:16.046Z,10.17
2018-05-12T21:29:42.276Z,10.13
2018-05-12T21:32:08.537Z,10.80
2018-05-12T21:34:34.781Z,10.20
2018-05-12T21:37:01.020Z,9.23
2018-05-12T21:39:27.986Z,9.73
2018-05-12T21:41:55.007Z,9.60
2018-05-12T21:44:21.230Z,9.10
2018-05-12T21:46:48.238Z,10.00
2018-05-12T21:49:15.217Z,8.53
2018-05-12T21:51:41.492Z,10.23
2018-05-12T21:54:07.702Z,10.13
2018-05-12T21:56:33.945Z,10.47
2018-05-12T21:59:00.295Z,9.60
2018-05-12T22:01:26.927Z,9.33
2018-05-12T22:03:53.211Z,9.37
2018-05-12T22:06:19.502Z,9.03
2018-05-12T22:08:46.514Z,8.57
2018-05-12T22:11:12.762Z,9.37
2018-05-12T22:13:39.017Z,8.43
2018-05-12T22:16:06.022Z,8.53
2018-05-12T22:18:32.354Z,9.50
2018-05-12T22:20:58.514Z,8.90
2018-05-12T22:23:24.797Z,8.83
2018-05-12T22:25:51.024Z,9.60
2018-05-12T22:28:17.266Z,8.57
2018-05-12T22:30:43.496Z,8.70
2018-05-12T22:33:09.760Z,8.40
2018-05-12T22:35:36.002Z,8.43
2018-05-12T22:38:02.248Z,9.87
2018-05-12T22:40:30.299Z,7.40
2018-05-12T22:42:56.591Z,7.83
2018-05-12T22:45:23.572Z,7.73
2018-05-12T22:47:49.795Z,8.53
2018-05-12T22:50:16.757Z,8.00
2018-05-12T22:52:43.021Z,7.20
2018-05-12T22:55:09.251Z,8.10
2018-05-12T22:57:35.519Z,8.40
2018-05-12T23:00:01.754Z,7.93
2018-05-12T23:02:28.243Z,7.50
2018-05-12T23:04:55.212Z,7.80
2018-05-12T23:07:22.185Z,8.10
2018-05-12T23:09:48.433Z,8.10
2018-05-12T23:12:14.727Z,8.10
2018-05-12T23:14:40.972Z,7.93
2018-05-12T23:17:07.206Z,8.47
2018-05-12T23:19:33.434Z,7.80
2018-05-12T23:21:59.652Z,7.70
2018-05-12T23:24:25.888Z,7.50
2018-05-12T23:26:52.120Z,8.70
2018-05-12T23:29:18.348Z,8.03
2018-05-12T23:31:44.588Z,10.00
2018-05-12T23:34:10.834Z,9.10
2018-05-12T23:36:37.052Z,9.47
2018-05-12T23:39:03.335Z,10.13
2018-05-12T23:41:29.560Z,9.60
2018-05-12T23:43:55.788Z,9.67
2018-05-12T23:46:22.758Z,9.87
2018-05-12T23:48:49.019Z,10.83
2018-05-12T23:51:15.301Z,9.40
2018-05-12T23:53:41.523Z,10.23
2018-05-12T23:56:07.750Z,8.03
2018-05-12T23:58:33.954Z,9.00
